Terminal Aerodrome Forecast
Issued by NWS Rapid City, SD

Home | Current Version | Previous Version | Text Only | Print | Product List | Glossary Off
Versions: 1 2 3 4 5 6 7 8 9 10 11 12 13 14 15 16

000
FTUS43 KUNR 200319 AAA
TAFRAP
TAF AMD
KRAP 200319Z 2003/2024 VRB04KT 6SM -RA BKN015 OVC025
     FM200900 VRB04KT P6SM BKN015 OVC025
     FM201700 09010KT P6SM SCT020 BKN035=

USA.gov is the U.S. government's official web portal to all federal, state and local government web resources and services.